sensor_id;sensor_type;location;lat;lon;timestamp;P1;durP1;ratioP1;P2;durP2;ratioP2
42886;SDS011;29032;56.028;92.904;2024-03-29T00:02:53;13.27;;;7.63;;
42886;SDS011;29032;56.028;92.904;2024-03-29T00:08:13;13.03;;;8.03;;
42886;SDS011;29032;56.028;92.904;2024-03-29T00:13:17;12.13;;;7.30;;
42886;SDS011;29032;56.028;92.904;2024-03-29T00:18:19;12.07;;;7.20;;
42886;SDS011;29032;56.028;92.904;2024-03-29T00:23:21;13.77;;;6.77;;
42886;SDS011;29032;56.028;92.904;2024-03-29T00:33:45;14.03;;;7.13;;
42886;SDS011;29032;56.028;92.904;2024-03-29T00:38:47;15.23;;;7.57;;
42886;SDS011;29032;56.028;92.904;2024-03-29T00:43:51;12.27;;;7.10;;
42886;SDS011;29032;56.028;92.904;2024-03-29T00:48:53;14.40;;;7.80;;
42886;SDS011;29032;56.028;92.904;2024-03-29T00:53:55;13.90;;;8.40;;
42886;SDS011;29032;56.028;92.904;2024-03-29T00:58:59;14.43;;;8.10;;
42886;SDS011;29032;56.028;92.904;2024-03-29T01:04:01;12.80;;;7.63;;
42886;SDS011;29032;56.028;92.904;2024-03-29T01:09:03;13.80;;;7.70;;
42886;SDS011;29032;56.028;92.904;2024-03-29T01:14:07;13.53;;;7.70;;
42886;SDS011;29032;56.028;92.904;2024-03-29T01:19:10;15.20;;;8.53;;
42886;SDS011;29032;56.028;92.904;2024-03-29T01:24:30;13.43;;;7.37;;
42886;SDS011;29032;56.028;92.904;2024-03-29T01:29:34;12.97;;;7.87;;
42886;SDS011;29032;56.028;92.904;2024-03-29T01:34:36;14.50;;;9.07;;
42886;SDS011;29032;56.028;92.904;2024-03-29T01:39:38;17.00;;;7.93;;
42886;SDS011;29032;56.028;92.904;2024-03-29T01:44:42;13.77;;;7.90;;
42886;SDS011;29032;56.028;92.904;2024-03-29T01:49:44;17.43;;;8.77;;
42886;SDS011;29032;56.028;92.904;2024-03-29T01:54:46;14.50;;;8.53;;
42886;SDS011;29032;56.028;92.904;2024-03-29T01:59:51;15.30;;;8.57;;
42886;SDS011;29032;56.028;92.904;2024-03-29T02:04:53;14.60;;;7.90;;
42886;SDS011;29032;56.028;92.904;2024-03-29T02:09:56;14.87;;;8.70;;
42886;SDS011;29032;56.028;92.904;2024-03-29T02:15:00;12.63;;;8.07;;
42886;SDS011;29032;56.028;92.904;2024-03-29T02:20:02;14.47;;;7.97;;
42886;SDS011;29032;56.028;92.904;2024-03-29T02:25:07;14.93;;;7.60;;
42886;SDS011;29032;56.028;92.904;2024-03-29T02:30:12;13.10;;;7.30;;
42886;SDS011;29032;56.028;92.904;2024-03-29T02:35:15;10.37;;;7.33;;
42886;SDS011;29032;56.028;92.904;2024-03-29T02:40:19;14.63;;;7.63;;
42886;SDS011;29032;56.028;92.904;2024-03-29T02:45:21;12.53;;;7.23;;
42886;SDS011;29032;56.028;92.904;2024-03-29T02:50:23;12.40;;;7.60;;
42886;SDS011;29032;56.028;92.904;2024-03-29T02:55:27;12.40;;;8.03;;
42886;SDS011;29032;56.028;92.904;2024-03-29T03:00:29;13.43;;;7.90;;
42886;SDS011;29032;56.028;92.904;2024-03-29T03:05:31;12.77;;;7.70;;
42886;SDS011;29032;56.028;92.904;2024-03-29T03:10:35;12.20;;;8.20;;
42886;SDS011;29032;56.028;92.904;2024-03-29T03:15:37;12.53;;;7.47;;
42886;SDS011;29032;56.028;92.904;2024-03-29T03:20:39;13.70;;;7.30;;
42886;SDS011;29032;56.028;92.904;2024-03-29T03:25:43;16.90;;;8.73;;
42886;SDS011;29032;56.028;92.904;2024-03-29T03:30:45;10.37;;;6.60;;
42886;SDS011;29032;56.028;92.904;2024-03-29T03:35:48;9.30;;;6.63;;
42886;SDS011;29032;56.028;92.904;2024-03-29T03:40:52;11.27;;;6.87;;
42886;SDS011;29032;56.028;92.904;2024-03-29T03:45:59;14.30;;;7.37;;
42886;SDS011;29032;56.028;92.904;2024-03-29T03:51:02;10.27;;;6.60;;
42886;SDS011;29032;56.028;92.904;2024-03-29T03:56:06;14.17;;;7.30;;
42886;SDS011;29032;56.028;92.904;2024-03-29T04:01:08;12.90;;;7.37;;
42886;SDS011;29032;56.028;92.904;2024-03-29T04:06:10;12.53;;;7.20;;
42886;SDS011;29032;56.028;92.904;2024-03-29T04:11:14;12.47;;;7.20;;
42886;SDS011;29032;56.028;92.904;2024-03-29T04:16:16;11.50;;;7.30;;
42886;SDS011;29032;56.028;92.904;2024-03-29T04:21:18;12.87;;;7.53;;
42886;SDS011;29032;56.028;92.904;2024-03-29T04:26:22;10.20;;;7.30;;
42886;SDS011;29032;56.028;92.904;2024-03-29T04:31:24;16.83;;;7.70;;
42886;SDS011;29032;56.028;92.904;2024-03-29T04:36:26;14.10;;;7.70;;
42886;SDS011;29032;56.028;92.904;2024-03-29T04:41:30;12.47;;;7.53;;
42886;SDS011;29032;56.028;92.904;2024-03-29T04:46:32;11.90;;;6.33;;
42886;SDS011;29032;56.028;92.904;2024-03-29T04:51:35;13.50;;;7.23;;
42886;SDS011;29032;56.028;92.904;2024-03-29T04:56:38;12.00;;;6.87;;
42886;SDS011;29032;56.028;92.904;2024-03-29T05:01:40;13.57;;;7.30;;
42886;SDS011;29032;56.028;92.904;2024-03-29T05:06:42;15.10;;;7.50;;
42886;SDS011;29032;56.028;92.904;2024-03-29T05:11:46;11.80;;;7.93;;
42886;SDS011;29032;56.028;92.904;2024-03-29T05:16:49;11.57;;;7.37;;
42886;SDS011;29032;56.028;92.904;2024-03-29T05:21:51;12.63;;;7.30;;
42886;SDS011;29032;56.028;92.904;2024-03-29T05:26:55;9.67;;;6.77;;
42886;SDS011;29032;56.028;92.904;2024-03-29T05:31:57;12.90;;;6.40;;
42886;SDS011;29032;56.028;92.904;2024-03-29T05:36:59;9.37;;;6.03;;
42886;SDS011;29032;56.028;92.904;2024-03-29T05:42:03;10.40;;;6.03;;
42886;SDS011;29032;56.028;92.904;2024-03-29T05:47:05;12.77;;;6.70;;
42886;SDS011;29032;56.028;92.904;2024-03-29T05:52:07;15.43;;;6.03;;
42886;SDS011;29032;56.028;92.904;2024-03-29T05:57:11;10.57;;;5.90;;
42886;SDS011;29032;56.028;92.904;2024-03-29T06:02:13;10.27;;;5.83;;
42886;SDS011;29032;56.028;92.904;2024-03-29T06:07:15;7.03;;;5.17;;
42886;SDS011;29032;56.028;92.904;2024-03-29T06:12:19;9.80;;;6.20;;
42886;SDS011;29032;56.028;92.904;2024-03-29T06:17:21;13.10;;;6.07;;
42886;SDS011;29032;56.028;92.904;2024-03-29T06:22:24;15.50;;;6.73;;
42886;SDS011;29032;56.028;92.904;2024-03-29T06:27:27;10.57;;;6.13;;
42886;SDS011;29032;56.028;92.904;2024-03-29T06:32:30;10.00;;;6.63;;
42886;SDS011;29032;56.028;92.904;2024-03-29T06:37:32;10.73;;;6.60;;
42886;SDS011;29032;56.028;92.904;2024-03-29T06:42:36;10.90;;;6.77;;
42886;SDS011;29032;56.028;92.904;2024-03-29T06:47:38;8.93;;;6.23;;
42886;SDS011;29032;56.028;92.904;2024-03-29T06:52:40;11.63;;;5.90;;
42886;SDS011;29032;56.028;92.904;2024-03-29T06:57:44;12.37;;;5.97;;
42886;SDS011;29032;56.028;92.904;2024-03-29T07:02:46;8.63;;;4.77;;
42886;SDS011;29032;56.028;92.904;2024-03-29T07:07:48;6.87;;;5.40;;
42886;SDS011;29032;56.028;92.904;2024-03-29T07:12:52;8.63;;;5.10;;
42886;SDS011;29032;56.028;92.904;2024-03-29T07:17:54;8.47;;;5.50;;
42886;SDS011;29032;56.028;92.904;2024-03-29T07:22:56;7.67;;;5.30;;
42886;SDS011;29032;56.028;92.904;2024-03-29T07:28:00;8.03;;;5.20;;
42886;SDS011;29032;56.028;92.904;2024-03-29T07:33:02;7.00;;;5.37;;
42886;SDS011;29032;56.028;92.904;2024-03-29T07:38:05;8.30;;;5.40;;
42886;SDS011;29032;56.028;92.904;2024-03-29T07:43:09;8.70;;;5.60;;
42886;SDS011;29032;56.028;92.904;2024-03-29T07:48:11;8.23;;;5.50;;
42886;SDS011;29032;56.028;92.904;2024-03-29T07:53:14;8.23;;;5.23;;
42886;SDS011;29032;56.028;92.904;2024-03-29T07:58:18;8.67;;;5.20;;
42886;SDS011;29032;56.028;92.904;2024-03-29T08:03:20;8.70;;;5.37;;
42886;SDS011;29032;56.028;92.904;2024-03-29T08:08:40;7.27;;;5.77;;
42886;SDS011;29032;56.028;92.904;2024-03-29T08:13:44;7.03;;;4.93;;
42886;SDS011;29032;56.028;92.904;2024-03-29T08:18:46;6.80;;;4.80;;
42886;SDS011;29032;56.028;92.904;2024-03-29T08:23:48;8.07;;;5.03;;
42886;SDS011;29032;56.028;92.904;2024-03-29T08:28:52;8.00;;;5.80;;
42886;SDS011;29032;56.028;92.904;2024-03-29T08:33:54;9.83;;;5.67;;
42886;SDS011;29032;56.028;92.904;2024-03-29T08:38:56;8.33;;;5.43;;
42886;SDS011;29032;56.028;92.904;2024-03-29T08:44:01;9.53;;;5.80;;
42886;SDS011;29032;56.028;92.904;2024-03-29T08:49:03;10.63;;;5.50;;
42886;SDS011;29032;56.028;92.904;2024-03-29T08:54:05;8.63;;;6.00;;
42886;SDS011;29032;56.028;92.904;2024-03-29T08:59:09;8.57;;;5.70;;
42886;SDS011;29032;56.028;92.904;2024-03-29T09:04:11;7.70;;;5.33;;
42886;SDS011;29032;56.028;92.904;2024-03-29T09:14:35;11.57;;;6.57;;
42886;SDS011;29032;56.028;92.904;2024-03-29T09:19:38;14.70;;;6.10;;
42886;SDS011;29032;56.028;92.904;2024-03-29T09:24:40;9.40;;;5.87;;
42886;SDS011;29032;56.028;92.904;2024-03-29T09:29:47;10.03;;;7.23;;
42886;SDS011;29032;56.028;92.904;2024-03-29T09:39:51;9.73;;;5.53;;
42886;SDS011;29032;56.028;92.904;2024-03-29T09:44:55;10.40;;;6.03;;
42886;SDS011;29032;56.028;92.904;2024-03-29T09:49:58;11.97;;;6.43;;
42886;SDS011;29032;56.028;92.904;2024-03-29T09:55:03;11.73;;;6.50;;
42886;SDS011;29032;56.028;92.904;2024-03-29T10:00:08;10.10;;;6.67;;
42886;SDS011;29032;56.028;92.904;2024-03-29T10:05:11;8.07;;;5.77;;
42886;SDS011;29032;56.028;92.904;2024-03-29T10:10:16;7.87;;;5.57;;
42886;SDS011;29032;56.028;92.904;2024-03-29T10:15:19;9.00;;;6.77;;
42886;SDS011;29032;56.028;92.904;2024-03-29T10:20:22;9.57;;;6.60;;
42886;SDS011;29032;56.028;92.904;2024-03-29T10:25:24;9.80;;;6.47;;
42886;SDS011;29032;56.028;92.904;2024-03-29T10:30:27;10.80;;;6.70;;
42886;SDS011;29032;56.028;92.904;2024-03-29T10:35:30;10.60;;;6.83;;
42886;SDS011;29032;56.028;92.904;2024-03-29T10:40:32;10.03;;;7.10;;
42886;SDS011;29032;56.028;92.904;2024-03-29T10:45:36;11.80;;;7.10;;
42886;SDS011;29032;56.028;92.904;2024-03-29T10:50:38;14.20;;;7.13;;
42886;SDS011;29032;56.028;92.904;2024-03-29T10:55:41;14.00;;;8.60;;
42886;SDS011;29032;56.028;92.904;2024-03-29T11:00:46;11.73;;;7.20;;
42886;SDS011;29032;56.028;92.904;2024-03-29T11:05:49;13.87;;;7.60;;
42886;SDS011;29032;56.028;92.904;2024-03-29T11:10:53;13.20;;;8.77;;
42886;SDS011;29032;56.028;92.904;2024-03-29T11:16:00;12.45;;;8.40;;
42886;SDS011;29032;56.028;92.904;2024-03-29T11:21:02;13.80;;;8.70;;
42886;SDS011;29032;56.028;92.904;2024-03-29T11:26:05;15.90;;;8.07;;
42886;SDS011;29032;56.028;92.904;2024-03-29T11:31:10;12.10;;;8.33;;
42886;SDS011;29032;56.028;92.904;2024-03-29T11:36:15;14.50;;;8.73;;
42886;SDS011;29032;56.028;92.904;2024-03-29T11:41:18;13.83;;;8.93;;
42886;SDS011;29032;56.028;92.904;2024-03-29T11:46:24;14.07;;;8.80;;
42886;SDS011;29032;56.028;92.904;2024-03-29T11:51:26;14.87;;;8.03;;
42886;SDS011;29032;56.028;92.904;2024-03-29T11:56:29;15.03;;;8.43;;
42886;SDS011;29032;56.028;92.904;2024-03-29T12:01:33;13.77;;;8.33;;
42886;SDS011;29032;56.028;92.904;2024-03-29T12:06:36;15.00;;;9.00;;
42886;SDS011;29032;56.028;92.904;2024-03-29T12:11:39;16.90;;;8.70;;
42886;SDS011;29032;56.028;92.904;2024-03-29T12:16:45;14.23;;;9.23;;
42886;SDS011;29032;56.028;92.904;2024-03-29T12:21:47;13.95;;;9.07;;
42886;SDS011;29032;56.028;92.904;2024-03-29T12:26:50;14.03;;;9.33;;
42886;SDS011;29032;56.028;92.904;2024-03-29T12:31:58;14.77;;;10.37;;
42886;SDS011;29032;56.028;92.904;2024-03-29T12:37:18;16.87;;;9.20;;
42886;SDS011;29032;56.028;92.904;2024-03-29T12:42:23;18.47;;;10.87;;
42886;SDS011;29032;56.028;92.904;2024-03-29T12:47:26;17.60;;;11.23;;
42886;SDS011;29032;56.028;92.904;2024-03-29T12:52:36;18.07;;;10.93;;
42886;SDS011;29032;56.028;92.904;2024-03-29T12:57:38;17.73;;;10.27;;
42886;SDS011;29032;56.028;92.904;2024-03-29T13:02:43;14.40;;;9.87;;
42886;SDS011;29032;56.028;92.904;2024-03-29T13:07:45;17.03;;;10.50;;
42886;SDS011;29032;56.028;92.904;2024-03-29T13:12:47;19.37;;;11.47;;
42886;SDS011;29032;56.028;92.904;2024-03-29T13:17:51;19.27;;;10.97;;
42886;SDS011;29032;56.028;92.904;2024-03-29T13:22:54;17.63;;;10.30;;
42886;SDS011;29032;56.028;92.904;2024-03-29T13:27:57;17.90;;;10.60;;
42886;SDS011;29032;56.028;92.904;2024-03-29T13:33:00;17.70;;;9.37;;
42886;SDS011;29032;56.028;92.904;2024-03-29T13:38:03;17.53;;;10.30;;
42886;SDS011;29032;56.028;92.904;2024-03-29T13:43:05;15.23;;;9.87;;
42886;SDS011;29032;56.028;92.904;2024-03-29T13:48:09;14.90;;;9.53;;
42886;SDS011;29032;56.028;92.904;2024-03-29T13:53:11;14.27;;;9.50;;
42886;SDS011;29032;56.028;92.904;2024-03-29T13:58:13;14.37;;;10.37;;
42886;SDS011;29032;56.028;92.904;2024-03-29T14:03:17;16.30;;;9.50;;
42886;SDS011;29032;56.028;92.904;2024-03-29T14:08:19;16.00;;;9.37;;
42886;SDS011;29032;56.028;92.904;2024-03-29T14:13:21;14.10;;;8.80;;
42886;SDS011;29032;56.028;92.904;2024-03-29T14:18:25;15.73;;;10.50;;
42886;SDS011;29032;56.028;92.904;2024-03-29T14:23:27;16.07;;;9.87;;
42886;SDS011;29032;56.028;92.904;2024-03-29T14:28:29;15.77;;;10.20;;
42886;SDS011;29032;56.028;92.904;2024-03-29T14:33:33;19.10;;;10.70;;
42886;SDS011;29032;56.028;92.904;2024-03-29T14:38:35;15.87;;;10.23;;
42886;SDS011;29032;56.028;92.904;2024-03-29T14:43:37;15.50;;;11.70;;
42886;SDS011;29032;56.028;92.904;2024-03-29T14:48:41;15.73;;;9.87;;
42886;SDS011;29032;56.028;92.904;2024-03-29T14:53:43;16.60;;;10.60;;
42886;SDS011;29032;56.028;92.904;2024-03-29T14:58:45;20.00;;;12.63;;
42886;SDS011;29032;56.028;92.904;2024-03-29T15:03:49;19.23;;;12.10;;
42886;SDS011;29032;56.028;92.904;2024-03-29T15:08:52;15.33;;;11.13;;
42886;SDS011;29032;56.028;92.904;2024-03-29T15:13:54;17.13;;;11.67;;
42886;SDS011;29032;56.028;92.904;2024-03-29T15:18:58;18.27;;;12.77;;
42886;SDS011;29032;56.028;92.904;2024-03-29T15:24:00;23.57;;;13.97;;
42886;SDS011;29032;56.028;92.904;2024-03-29T15:29:03;20.20;;;13.10;;
42886;SDS011;29032;56.028;92.904;2024-03-29T15:34:07;21.30;;;13.67;;
42886;SDS011;29032;56.028;92.904;2024-03-29T15:39:09;21.33;;;14.83;;
42886;SDS011;29032;56.028;92.904;2024-03-29T15:44:12;23.60;;;15.20;;
42886;SDS011;29032;56.028;92.904;2024-03-29T15:49:15;23.93;;;15.50;;
42886;SDS011;29032;56.028;92.904;2024-03-29T15:54:18;24.43;;;16.57;;
42886;SDS011;29032;56.028;92.904;2024-03-29T15:59:38;25.93;;;17.57;;
42886;SDS011;29032;56.028;92.904;2024-03-29T16:04:42;23.87;;;15.70;;
42886;SDS011;29032;56.028;92.904;2024-03-29T16:09:44;26.77;;;15.93;;
42886;SDS011;29032;56.028;92.904;2024-03-29T16:14:46;19.73;;;14.27;;
42886;SDS011;29032;56.028;92.904;2024-03-29T16:19:49;27.50;;;16.53;;
42886;SDS011;29032;56.028;92.904;2024-03-29T16:24:52;28.43;;;17.90;;
42886;SDS011;29032;56.028;92.904;2024-03-29T16:30:12;27.73;;;17.43;;
42886;SDS011;29032;56.028;92.904;2024-03-29T16:35:16;27.27;;;17.83;;
42886;SDS011;29032;56.028;92.904;2024-03-29T16:40:18;39.83;;;22.23;;
42886;SDS011;29032;56.028;92.904;2024-03-29T16:45:20;45.10;;;26.73;;
42886;SDS011;29032;56.028;92.904;2024-03-29T16:50:24;49.43;;;28.70;;
42886;SDS011;29032;56.028;92.904;2024-03-29T16:55:26;50.77;;;29.63;;
42886;SDS011;29032;56.028;92.904;2024-03-29T17:00:29;40.60;;;24.57;;
42886;SDS011;29032;56.028;92.904;2024-03-29T17:05:32;36.03;;;21.20;;
42886;SDS011;29032;56.028;92.904;2024-03-29T17:10:35;32.77;;;20.10;;
42886;SDS011;29032;56.028;92.904;2024-03-29T17:15:37;32.10;;;20.87;;
42886;SDS011;29032;56.028;92.904;2024-03-29T17:20:40;37.70;;;21.60;;
42886;SDS011;29032;56.028;92.904;2024-03-29T17:25:43;34.47;;;21.07;;
42886;SDS011;29032;56.028;92.904;2024-03-29T17:30:45;35.47;;;21.30;;
42886;SDS011;29032;56.028;92.904;2024-03-29T17:35:49;47.03;;;25.83;;
42886;SDS011;29032;56.028;92.904;2024-03-29T17:40:51;40.03;;;23.80;;
42886;SDS011;29032;56.028;92.904;2024-03-29T17:46:11;56.37;;;32.67;;
42886;SDS011;29032;56.028;92.904;2024-03-29T17:51:15;50.17;;;27.10;;
42886;SDS011;29032;56.028;92.904;2024-03-29T17:56:17;47.80;;;26.17;;
42886;SDS011;29032;56.028;92.904;2024-03-29T18:01:20;49.03;;;25.83;;
42886;SDS011;29032;56.028;92.904;2024-03-29T18:06:24;43.63;;;23.67;;
42886;SDS011;29032;56.028;92.904;2024-03-29T18:11:26;45.13;;;26.07;;
42886;SDS011;29032;56.028;92.904;2024-03-29T18:16:28;40.57;;;25.17;;
42886;SDS011;29032;56.028;92.904;2024-03-29T18:21:32;40.30;;;23.67;;
42886;SDS011;29032;56.028;92.904;2024-03-29T18:26:34;41.07;;;24.50;;
42886;SDS011;29032;56.028;92.904;2024-03-29T18:31:36;36.93;;;24.47;;
42886;SDS011;29032;56.028;92.904;2024-03-29T18:36:40;41.93;;;24.77;;
42886;SDS011;29032;56.028;92.904;2024-03-29T18:41:42;42.27;;;23.47;;
42886;SDS011;29032;56.028;92.904;2024-03-29T18:46:44;40.40;;;23.17;;
42886;SDS011;29032;56.028;92.904;2024-03-29T18:51:49;35.47;;;22.77;;
42886;SDS011;29032;56.028;92.904;2024-03-29T18:56:51;34.90;;;22.67;;
42886;SDS011;29032;56.028;92.904;2024-03-29T19:01:53;38.43;;;23.30;;
42886;SDS011;29032;56.028;92.904;2024-03-29T19:06:57;41.53;;;23.70;;
42886;SDS011;29032;56.028;92.904;2024-03-29T19:11:59;35.10;;;22.33;;
42886;SDS011;29032;56.028;92.904;2024-03-29T19:17:01;38.70;;;21.53;;
42886;SDS011;29032;56.028;92.904;2024-03-29T19:22:05;32.30;;;20.17;;
42886;SDS011;29032;56.028;92.904;2024-03-29T19:27:08;39.43;;;21.30;;
42886;SDS011;29032;56.028;92.904;2024-03-29T19:32:10;37.17;;;22.43;;
42886;SDS011;29032;56.028;92.904;2024-03-29T19:37:13;35.30;;;21.57;;
42886;SDS011;29032;56.028;92.904;2024-03-29T19:42:15;33.57;;;21.53;;
42886;SDS011;29032;56.028;92.904;2024-03-29T19:47:36;32.70;;;21.57;;
42886;SDS011;29032;56.028;92.904;2024-03-29T19:52:40;36.23;;;21.83;;
42886;SDS011;29032;56.028;92.904;2024-03-29T19:57:42;28.50;;;17.63;;
42886;SDS011;29032;56.028;92.904;2024-03-29T20:03:02;29.87;;;16.97;;
42886;SDS011;29032;56.028;92.904;2024-03-29T20:08:06;31.10;;;16.93;;
42886;SDS011;29032;56.028;92.904;2024-03-29T20:13:09;28.83;;;17.33;;
42886;SDS011;29032;56.028;92.904;2024-03-29T20:18:12;24.43;;;16.73;;
42886;SDS011;29032;56.028;92.904;2024-03-29T20:23:16;29.90;;;18.23;;
42886;SDS011;29032;56.028;92.904;2024-03-29T20:28:18;27.63;;;16.80;;
42886;SDS011;29032;56.028;92.904;2024-03-29T20:33:20;21.33;;;15.20;;
42886;SDS011;29032;56.028;92.904;2024-03-29T20:38:24;24.10;;;16.00;;
42886;SDS011;29032;56.028;92.904;2024-03-29T20:43:26;26.67;;;16.27;;
42886;SDS011;29032;56.028;92.904;2024-03-29T20:48:28;27.07;;;16.10;;
42886;SDS011;29032;56.028;92.904;2024-03-29T20:53:32;24.53;;;15.97;;
42886;SDS011;29032;56.028;92.904;2024-03-29T20:58:34;28.80;;;17.80;;
42886;SDS011;29032;56.028;92.904;2024-03-29T21:03:37;26.60;;;17.90;;
42886;SDS011;29032;56.028;92.904;2024-03-29T21:08:40;31.33;;;17.47;;
42886;SDS011;29032;56.028;92.904;2024-03-29T21:13:43;29.90;;;19.30;;
42886;SDS011;29032;56.028;92.904;2024-03-29T21:18:45;30.50;;;19.07;;
42886;SDS011;29032;56.028;92.904;2024-03-29T21:23:48;38.53;;;21.73;;
42886;SDS011;29032;56.028;92.904;2024-03-29T21:28:51;38.50;;;22.57;;
42886;SDS011;29032;56.028;92.904;2024-03-29T21:33:53;31.03;;;19.03;;
42886;SDS011;29032;56.028;92.904;2024-03-29T21:38:56;31.13;;;19.20;;
42886;SDS011;29032;56.028;92.904;2024-03-29T21:43:59;29.93;;;18.73;;
42886;SDS011;29032;56.028;92.904;2024-03-29T21:49:01;32.00;;;20.23;;
42886;SDS011;29032;56.028;92.904;2024-03-29T21:54:04;27.83;;;19.20;;
42886;SDS011;29032;56.028;92.904;2024-03-29T21:59:06;27.17;;;17.80;;
42886;SDS011;29032;56.028;92.904;2024-03-29T22:04:09;30.63;;;18.90;;
42886;SDS011;29032;56.028;92.904;2024-03-29T22:09:13;27.70;;;17.50;;
42886;SDS011;29032;56.028;92.904;2024-03-29T22:14:15;30.70;;;19.67;;
42886;SDS011;29032;56.028;92.904;2024-03-29T22:19:17;30.93;;;20.03;;
42886;SDS011;29032;56.028;92.904;2024-03-29T22:24:21;29.57;;;16.93;;
42886;SDS011;29032;56.028;92.904;2024-03-29T22:29:23;24.67;;;12.33;;
42886;SDS011;29032;56.028;92.904;2024-03-29T22:34:25;15.90;;;11.33;;
42886;SDS011;29032;56.028;92.904;2024-03-29T22:39:29;23.33;;;13.73;;
42886;SDS011;29032;56.028;92.904;2024-03-29T22:44:31;18.93;;;11.77;;
42886;SDS011;29032;56.028;92.904;2024-03-29T22:49:33;17.27;;;11.37;;
42886;SDS011;29032;56.028;92.904;2024-03-29T22:54:37;20.13;;;11.83;;
42886;SDS011;29032;56.028;92.904;2024-03-29T22:59:39;15.37;;;10.10;;
42886;SDS011;29032;56.028;92.904;2024-03-29T23:04:41;13.77;;;10.20;;
42886;SDS011;29032;56.028;92.904;2024-03-29T23:09:45;16.47;;;10.50;;
42886;SDS011;29032;56.028;92.904;2024-03-29T23:14:47;13.43;;;10.60;;
42886;SDS011;29032;56.028;92.904;2024-03-29T23:19:51;17.87;;;10.93;;
42886;SDS011;29032;56.028;92.904;2024-03-29T23:24:54;18.53;;;11.23;;
42886;SDS011;29032;56.028;92.904;2024-03-29T23:29:57;18.00;;;10.47;;
42886;SDS011;29032;56.028;92.904;2024-03-29T23:34:59;13.63;;;9.10;;
42886;SDS011;29032;56.028;92.904;2024-03-29T23:40:03;13.47;;;9.03;;
42886;SDS011;29032;56.028;92.904;2024-03-29T23:45:06;12.13;;;8.37;;
42886;SDS011;29032;56.028;92.904;2024-03-29T23:50:08;16.83;;;9.50;;
42886;SDS011;29032;56.028;92.904;2024-03-29T23:55:11;12.97;;;8.43;;
